createdAt,value
2023-03-26T00:00:44.539Z,7.37
2023-03-26T00:10:47.273Z,10.00
2023-03-26T00:20:49.373Z,7.50
2023-03-26T00:30:58.215Z,7.27
2023-03-26T00:41:06.299Z,8.50
2023-03-26T00:51:12.413Z,8.23
2023-03-26T01:01:19.104Z,6.00
2023-03-26T01:11:28.732Z,9.02
2023-03-26T01:21:32.071Z,7.53
2023-03-26T01:31:37.307Z,7.03
2023-03-26T01:41:47.261Z,7.87
2023-03-26T01:51:55.519Z,8.17
2023-03-26T02:02:14.421Z,7.00
2023-03-26T02:12:18.090Z,5.73
2023-03-26T02:22:22.914Z,5.87
2023-03-26T02:32:27.296Z,7.63
2023-03-26T02:42:35.469Z,5.73
2023-03-26T02:52:37.989Z,7.33
2023-03-26T03:02:48.648Z,7.40
2023-03-26T03:13:07.967Z,4.97
2023-03-26T03:23:16.664Z,6.23
2023-03-26T03:33:20.918Z,5.87
2023-03-26T03:43:25.836Z,5.90
2023-03-26T03:53:59.553Z,5.37
2023-03-26T04:04:33.343Z,9.63
2023-03-26T04:14:38.130Z,5.97
2023-03-26T04:24:50.043Z,4.17
2023-03-26T04:35:17.679Z,5.60
2023-03-26T04:45:25.223Z,4.27
2023-03-26T04:55:55.219Z,4.80
2023-03-26T05:06:18.094Z,5.17
2023-03-26T05:16:25.448Z,5.70
2023-03-26T05:26:39.024Z,4.23
2023-03-26T05:36:53.444Z,5.33
2023-03-26T05:47:16.419Z,5.03
2023-03-26T05:57:19.061Z,6.43
2023-03-26T06:07:40.225Z,5.80
2023-03-26T06:17:55.680Z,6.07
2023-03-26T06:28:19.118Z,3.83
2023-03-26T06:38:56.933Z,4.07
2023-03-26T06:48:59.911Z,4.03
2023-03-26T06:59:24.995Z,5.43
2023-03-26T07:09:46.245Z,4.60
2023-03-26T07:20:08.801Z,3.88
2023-03-26T07:30:36.616Z,3.42
2023-03-26T07:41:24.072Z,3.53
2023-03-26T07:51:45.212Z,7.47
2023-03-26T08:02:30.792Z,5.95
2023-03-26T08:13:24.699Z,3.90
2023-03-26T08:23:53.958Z,4.10
2023-03-26T08:33:56.685Z,3.90
2023-03-26T08:44:30.204Z,4.15
2023-03-26T09:05:30.469Z,4.07
2023-03-26T09:15:48.787Z,4.53
2023-03-26T09:25:59.760Z,4.75
2023-03-26T09:36:08.253Z,3.42
2023-03-26T09:46:13.529Z,2.85
2023-03-26T09:56:30.439Z,3.28
2023-03-26T10:06:44.761Z,4.95
2023-03-26T10:17:06.907Z,2.33
2023-03-26T10:27:10.824Z,2.97
2023-03-26T10:37:37.965Z,4.63
2023-03-26T10:48:03.528Z,2.90
2023-03-26T10:58:49.345Z,1.40
2023-03-26T11:09:24.117Z,1.47
2023-03-26T11:19:38.382Z,1.75
2023-03-26T11:30:18.292Z,3.73
2023-03-26T11:40:36.198Z,2.85
2023-03-26T11:50:47.408Z,2.90
2023-03-26T12:00:53.203Z,2.28
2023-03-26T12:11:10.450Z,6.78
2023-03-26T12:21:19.896Z,4.78
2023-03-26T12:31:26.972Z,1.88
2023-03-26T12:43:40.239Z,2.10
2023-03-26T12:52:09.354Z,2.17
2023-03-26T13:02:29.665Z,2.45
2023-03-26T13:12:50.780Z,4.00
2023-03-26T13:23:10.465Z,2.10
2023-03-26T13:33:19.833Z,3.50
2023-03-26T13:43:38.404Z,5.88
2023-03-26T13:54:18.013Z,3.33
2023-03-26T14:04:47.036Z,2.25
2023-03-26T14:15:04.939Z,2.45
2023-03-26T14:25:21.288Z,2.28
2023-03-26T14:35:35.557Z,3.40
2023-03-26T14:45:53.847Z,2.13
2023-03-26T14:56:13.701Z,2.05
2023-03-26T15:06:35.077Z,1.70
2023-03-26T15:17:03.099Z,1.90
2023-03-26T15:27:25.769Z,2.90
2023-03-26T15:38:09.382Z,1.75
2023-03-26T15:48:21.091Z,2.40
2023-03-26T15:58:52.709Z,1.98
2023-03-26T16:08:58.008Z,3.40
2023-03-26T16:19:23.323Z,2.30
2023-03-26T16:29:28.814Z,3.55
2023-03-26T16:39:42.606Z,3.75
2023-03-26T16:50:26.276Z,4.45
2023-03-26T17:00:41.448Z,2.97
2023-03-26T17:11:05.567Z,4.25
2023-03-26T17:21:46.557Z,3.85
2023-03-26T17:32:09.360Z,3.03
2023-03-26T17:42:16.349Z,4.63
2023-03-26T17:52:26.485Z,4.80
2023-03-26T18:02:42.449Z,5.27
2023-03-26T18:13:15.585Z,4.80
2023-03-26T18:23:29.936Z,5.03
2023-03-26T18:33:43.807Z,7.37
2023-03-26T18:43:51.225Z,6.20
2023-03-26T18:54:04.122Z,5.57
2023-03-26T19:04:12.258Z,6.93
2023-03-26T19:14:19.537Z,10.17
2023-03-26T19:24:25.803Z,10.23
2023-03-26T19:34:35.633Z,11.53
2023-03-26T19:44:41.280Z,13.73
2023-03-26T19:55:00.043Z,12.97
2023-03-26T20:05:26.624Z,15.10
2023-03-26T20:15:32.067Z,13.97
2023-03-26T20:25:36.657Z,16.00
2023-03-26T20:35:41.629Z,14.27
2023-03-26T20:45:47.575Z,14.67
2023-03-26T20:55:52.448Z,15.43
2023-03-26T21:05:54.848Z,13.53
2023-03-26T21:16:02.507Z,13.40
2023-03-26T21:26:30.029Z,15.33
2023-03-26T21:36:35.377Z,15.07
2023-03-26T21:46:41.310Z,9.77
2023-03-26T21:56:56.298Z,10.43
2023-03-26T22:07:07.339Z,13.73
2023-03-26T22:17:14.360Z,10.97
2023-03-26T22:27:20.344Z,11.37
2023-03-26T22:37:24.066Z,9.47
2023-03-26T22:47:27.726Z,11.00
2023-03-26T22:57:34.723Z,12.83
2023-03-26T23:07:37.941Z,13.20
2023-03-26T23:17:40.525Z,11.67
2023-03-26T23:27:44.934Z,11.47
2023-03-26T23:37:51.163Z,10.10
2023-03-26T23:47:56.452Z,11.37
2023-03-26T23:57:58.919Z,12.30
